sensor_id;sensor_type;location;lat;lon;timestamp;pressure;altitude;pressure_sealevel;temperature;humidity
76940;BME280;65885;55.848;35.916;2023-03-01T00:01:01;98686.22;;;-4.48;61.45
76940;BME280;65885;55.848;35.916;2023-03-01T00:03:29;98689.56;;;-4.58;61.53
76940;BME280;65885;55.848;35.916;2023-03-01T00:05:57;98684.41;;;-4.65;61.49
76940;BME280;65885;55.848;35.916;2023-03-01T00:08:25;98688.63;;;-4.69;61.75
76940;BME280;65885;55.848;35.916;2023-03-01T00:11:00;98675.88;;;-4.66;61.88
76940;BME280;65885;55.848;35.916;2023-03-01T00:13:29;98670.81;;;-4.58;62.21
76940;BME280;65885;55.848;35.916;2023-03-01T00:15:57;98674.25;;;-4.50;62.06
76940;BME280;65885;55.848;35.916;2023-03-01T00:18:24;98670.91;;;-4.41;61.53
76940;BME280;65885;55.848;35.916;2023-03-01T00:20:51;98670.94;;;-4.34;62.09
76940;BME280;65885;55.848;35.916;2023-03-01T00:23:19;98673.53;;;-4.26;61.51
76940;BME280;65885;55.848;35.916;2023-03-01T00:25:46;98671.88;;;-4.21;61.05
76940;BME280;65885;55.848;35.916;2023-03-01T00:28:14;98670.16;;;-4.16;61.46
76940;BME280;65885;55.848;35.916;2023-03-01T00:30:44;98668.50;;;-4.12;61.19
76940;BME280;65885;55.848;35.916;2023-03-01T00:33:12;98672.75;;;-4.10;60.92
76940;BME280;65885;55.848;35.916;2023-03-01T00:35:39;98665.06;;;-4.13;60.93
76940;BME280;65885;55.848;35.916;2023-03-01T00:38:07;98665.03;;;-4.19;60.60
76940;BME280;65885;55.848;35.916;2023-03-01T00:40:35;98670.13;;;-4.30;60.96
76940;BME280;65885;55.848;35.916;2023-03-01T00:43:04;98664.06;;;-4.41;61.21
76940;BME280;65885;55.848;35.916;2023-03-01T00:45:32;98664.03;;;-4.52;61.24
76940;BME280;65885;55.848;35.916;2023-03-01T00:48:01;98663.97;;;-4.61;61.71
76940;BME280;65885;55.848;35.916;2023-03-01T00:50:29;98669.00;;;-4.71;61.99
76940;BME280;65885;55.848;35.916;2023-03-01T00:52:56;98667.25;;;-4.80;62.10
76940;BME280;65885;55.848;35.916;2023-03-01T00:55:24;98662.06;;;-4.89;61.95
76940;BME280;65885;55.848;35.916;2023-03-01T00:57:51;98664.59;;;-4.94;62.49
76940;BME280;65885;55.848;35.916;2023-03-01T01:00:20;98669.69;;;-4.92;62.78
76940;BME280;65885;55.848;35.916;2023-03-01T01:02:47;98667.19;;;-4.88;62.56
76940;BME280;65885;55.848;35.916;2023-03-01T01:05:17;98659.56;;;-4.80;62.59
76940;BME280;65885;55.848;35.916;2023-03-01T01:07:47;98656.22;;;-4.73;62.38
76940;BME280;65885;55.848;35.916;2023-03-01T01:10:15;98649.44;;;-4.68;62.22
76940;BME280;65885;55.848;35.916;2023-03-01T01:12:44;98646.94;;;-4.60;61.91
76940;BME280;65885;55.848;35.916;2023-03-01T01:15:11;98641.81;;;-4.59;61.80
76940;BME280;65885;55.848;35.916;2023-03-01T01:17:42;98641.81;;;-4.56;61.67
76940;BME280;65885;55.848;35.916;2023-03-01T01:20:10;98642.69;;;-4.54;61.32
76940;BME280;65885;55.848;35.916;2023-03-01T01:22:40;98649.53;;;-4.53;61.67
76940;BME280;65885;55.848;35.916;2023-03-01T01:25:08;98641.81;;;-4.57;61.37
76940;BME280;65885;55.848;35.916;2023-03-01T01:27:36;98646.03;;;-4.65;60.77
76940;BME280;65885;55.848;35.916;2023-03-01T01:30:04;98647.66;;;-4.78;61.22
76940;BME280;65885;55.848;35.916;2023-03-01T01:32:32;98658.66;;;-4.90;61.27
76940;BME280;65885;55.848;35.916;2023-03-01T01:34:59;98661.97;;;-5.02;61.46
76940;BME280;65885;55.848;35.916;2023-03-01T01:37:27;98643.13;;;-5.14;61.94
76940;BME280;65885;55.848;35.916;2023-03-01T01:39:58;98658.38;;;-5.25;62.09
76940;BME280;65885;55.848;35.916;2023-03-01T01:42:26;98654.91;;;-5.33;62.19
76940;BME280;65885;55.848;35.916;2023-03-01T01:48:10;98653.13;;;-5.39;62.81
76940;BME280;65885;55.848;35.916;2023-03-01T01:50:40;98647.25;;;-5.33;63.11
76940;BME280;65885;55.848;35.916;2023-03-01T01:53:13;98661.78;;;-5.26;62.92
76940;BME280;65885;55.848;35.916;2023-03-01T01:55:45;98656.72;;;-5.18;62.61
76940;BME280;65885;55.848;35.916;2023-03-01T01:58:18;98663.59;;;-5.11;62.34
76940;BME280;65885;55.848;35.916;2023-03-01T02:00:47;98658.50;;;-5.07;62.70
76940;BME280;65885;55.848;35.916;2023-03-01T02:03:18;98660.28;;;-5.01;62.63
76940;BME280;65885;55.848;35.916;2023-03-01T02:05:50;98666.28;;;-4.97;62.40
76940;BME280;65885;55.848;35.916;2023-03-01T02:08:21;98663.75;;;-4.93;62.04
76940;BME280;65885;55.848;35.916;2023-03-01T02:10:51;98667.16;;;-4.92;61.90
76940;BME280;65885;55.848;35.916;2023-03-01T02:13:20;98666.28;;;-4.91;61.68
76940;BME280;65885;55.848;35.916;2023-03-01T02:15:47;98667.13;;;-4.97;61.47
76940;BME280;65885;55.848;35.916;2023-03-01T02:18:17;98663.66;;;-5.05;61.40
76940;BME280;65885;55.848;35.916;2023-03-01T02:20:54;98661.00;;;-5.16;61.43
76940;BME280;65885;55.848;35.916;2023-03-01T02:23:25;98669.44;;;-5.27;61.47
76940;BME280;65885;55.848;35.916;2023-03-01T02:25:57;98665.91;;;-5.39;61.91
76940;BME280;65885;55.848;35.916;2023-03-01T02:28:34;98669.25;;;-5.47;62.13
76940;BME280;65885;55.848;35.916;2023-03-01T02:31:05;98664.06;;;-5.56;62.64
76940;BME280;65885;55.848;35.916;2023-03-01T02:33:51;98669.06;;;-5.66;62.56
76940;BME280;65885;55.848;35.916;2023-03-01T02:36:22;98672.41;;;-5.71;62.96
76940;BME280;65885;55.848;35.916;2023-03-01T02:38:53;98664.75;;;-5.71;63.38
76940;BME280;65885;55.848;35.916;2023-03-01T02:41:22;98669.06;;;-5.66;63.13
76940;BME280;65885;55.848;35.916;2023-03-01T02:43:53;98670.00;;;-5.59;63.32
76940;BME280;65885;55.848;35.916;2023-03-01T02:46:22;98667.50;;;-5.51;62.88
76940;BME280;65885;55.848;35.916;2023-03-01T02:48:52;98671.00;;;-5.43;62.90
76940;BME280;65885;55.848;35.916;2023-03-01T02:51:26;98669.38;;;-5.35;62.43
76940;BME280;65885;55.848;35.916;2023-03-01T02:54:06;98674.50;;;-5.29;62.28
76940;BME280;65885;55.848;35.916;2023-03-01T02:56:35;98670.31;;;-5.24;61.90
76940;BME280;65885;55.848;35.916;2023-03-01T02:59:04;98670.31;;;-5.22;62.00
76940;BME280;65885;55.848;35.916;2023-03-01T03:01:32;98666.94;;;-5.20;61.80
76940;BME280;65885;55.848;35.916;2023-03-01T03:04:07;98671.19;;;-5.20;61.10
76940;BME280;65885;55.848;35.916;2023-03-01T03:06:35;98669.47;;;-5.23;61.16
76940;BME280;65885;55.848;35.916;2023-03-01T03:09:04;98677.13;;;-5.24;61.19
76940;BME280;65885;55.848;35.916;2023-03-01T03:11:31;98687.25;;;-5.34;60.60
76940;BME280;65885;55.848;35.916;2023-03-01T03:13:59;98685.41;;;-5.47;60.62
76940;BME280;65885;55.848;35.916;2023-03-01T03:16:28;98684.41;;;-5.63;60.60
76940;BME280;65885;55.848;35.916;2023-03-01T03:18:56;98682.56;;;-5.77;61.08
76940;BME280;65885;55.848;35.916;2023-03-01T03:21:31;98678.16;;;-5.94;61.56
76940;BME280;65885;55.848;35.916;2023-03-01T03:23:58;98680.53;;;-6.07;61.28
76940;BME280;65885;55.848;35.916;2023-03-01T03:26:26;98688.91;;;-6.18;62.06
76940;BME280;65885;55.848;35.916;2023-03-01T03:28:53;98679.41;;;-6.28;62.42
76940;BME280;65885;55.848;35.916;2023-03-01T03:31:21;98680.22;;;-6.32;62.25
76940;BME280;65885;55.848;35.916;2023-03-01T03:33:49;98691.31;;;-6.28;62.61
76940;BME280;65885;55.848;35.916;2023-03-01T03:36:20;98688.00;;;-6.23;62.56
76940;BME280;65885;55.848;35.916;2023-03-01T03:38:48;98682.97;;;-6.17;62.98
76940;BME280;65885;55.848;35.916;2023-03-01T03:41:16;98678.81;;;-6.10;62.74
76940;BME280;65885;55.848;35.916;2023-03-01T03:43:44;98677.19;;;-6.02;62.69
76940;BME280;65885;55.848;35.916;2023-03-01T03:46:11;98680.69;;;-5.97;62.10
76940;BME280;65885;55.848;35.916;2023-03-01T03:48:40;98686.69;;;-5.89;61.98
76940;BME280;65885;55.848;35.916;2023-03-01T03:51:12;98682.47;;;-5.82;62.41
76940;BME280;65885;55.848;35.916;2023-03-01T03:53:40;98682.56;;;-5.77;62.03
76940;BME280;65885;55.848;35.916;2023-03-01T03:56:07;98677.44;;;-5.76;62.22
76940;BME280;65885;55.848;35.916;2023-03-01T03:58:38;98680.91;;;-5.74;62.34
76940;BME280;65885;55.848;35.916;2023-03-01T04:01:08;98681.72;;;-5.76;62.57
76940;BME280;65885;55.848;35.916;2023-03-01T04:03:36;98684.22;;;-5.81;62.35
76940;BME280;65885;55.848;35.916;2023-03-01T04:06:04;98688.41;;;-5.84;62.63
76940;BME280;65885;55.848;35.916;2023-03-01T04:08:33;98679.88;;;-5.88;62.95
76940;BME280;65885;55.848;35.916;2023-03-01T04:11:02;98686.66;;;-5.90;62.96
76940;BME280;65885;55.848;35.916;2023-03-01T04:13:50;98687.50;;;-5.90;62.89
76940;BME280;65885;55.848;35.916;2023-03-01T04:16:17;98681.59;;;-5.87;63.26
76940;BME280;65885;55.848;35.916;2023-03-01T04:18:45;98685.09;;;-5.77;62.90
76940;BME280;65885;55.848;35.916;2023-03-01T04:21:14;98686.03;;;-5.69;63.40
76940;BME280;65885;55.848;35.916;2023-03-01T04:23:43;98685.31;;;-5.59;63.10
76940;BME280;65885;55.848;35.916;2023-03-01T04:26:11;98682.00;;;-5.50;62.67
76940;BME280;65885;55.848;35.916;2023-03-01T04:28:41;98690.59;;;-5.42;62.37
76940;BME280;65885;55.848;35.916;2023-03-01T04:31:12;98685.56;;;-5.33;61.95
76940;BME280;65885;55.848;35.916;2023-03-01T04:33:41;98688.19;;;-5.27;61.87
76940;BME280;65885;55.848;35.916;2023-03-01T04:36:10;98690.78;;;-5.21;61.68
76940;BME280;65885;55.848;35.916;2023-03-01T04:38:39;98689.13;;;-5.16;61.81
76940;BME280;65885;55.848;35.916;2023-03-01T04:41:10;98697.63;;;-5.17;61.91
76940;BME280;65885;55.848;35.916;2023-03-01T04:43:37;98700.16;;;-5.20;61.45
76940;BME280;65885;55.848;35.916;2023-03-01T04:46:07;98704.34;;;-5.28;61.69
76940;BME280;65885;55.848;35.916;2023-03-01T04:48:35;98707.69;;;-5.35;61.80
76940;BME280;65885;55.848;35.916;2023-03-01T04:51:04;98713.56;;;-5.44;62.26
76940;BME280;65885;55.848;35.916;2023-03-01T04:53:32;98709.25;;;-5.46;62.32
76940;BME280;65885;55.848;35.916;2023-03-01T04:56:02;98715.19;;;-5.50;62.63
76940;BME280;65885;55.848;35.916;2023-03-01T04:58:32;98712.59;;;-5.52;63.22
76940;BME280;65885;55.848;35.916;2023-03-01T05:00:59;98716.84;;;-5.52;63.62
76940;BME280;65885;55.848;35.916;2023-03-01T05:03:27;98711.81;;;-5.49;63.46
76940;BME280;65885;55.848;35.916;2023-03-01T05:05:58;98719.56;;;-5.37;64.04
76940;BME280;65885;55.848;35.916;2023-03-01T05:08:26;98729.09;;;-5.22;64.21
76940;BME280;65885;55.848;35.916;2023-03-01T05:10:54;98723.31;;;-5.05;63.76
76940;BME280;65885;55.848;35.916;2023-03-01T05:13:21;98726.84;;;-4.87;63.68
76940;BME280;65885;55.848;35.916;2023-03-01T05:15:54;98722.72;;;-4.70;63.80
76940;BME280;65885;55.848;35.916;2023-03-01T05:18:22;98719.41;;;-4.54;63.24
76940;BME280;65885;55.848;35.916;2023-03-01T05:20:51;98728.94;;;-4.37;63.28
76940;BME280;65885;55.848;35.916;2023-03-01T05:23:23;98723.03;;;-4.24;62.35
76940;BME280;65885;55.848;35.916;2023-03-01T05:25:51;98726.50;;;-4.13;62.12
76940;BME280;65885;55.848;35.916;2023-03-01T05:28:20;98727.41;;;-4.06;62.29
76940;BME280;65885;55.848;35.916;2023-03-01T05:30:47;98733.38;;;-4.06;61.97
76940;BME280;65885;55.848;35.916;2023-03-01T05:33:18;98735.09;;;-4.08;62.12
76940;BME280;65885;55.848;35.916;2023-03-01T05:35:48;98734.19;;;-4.13;62.17
76940;BME280;65885;55.848;35.916;2023-03-01T05:38:16;98730.75;;;-4.18;62.04
76940;BME280;65885;55.848;35.916;2023-03-01T05:40:45;98746.91;;;-4.25;62.29
76940;BME280;65885;55.848;35.916;2023-03-01T05:43:14;98747.72;;;-4.32;61.93
76940;BME280;65885;55.848;35.916;2023-03-01T05:45:42;98761.34;;;-4.38;62.27
76940;BME280;65885;55.848;35.916;2023-03-01T05:48:11;98757.88;;;-4.43;62.39
76940;BME280;65885;55.848;35.916;2023-03-01T05:50:43;98761.25;;;-4.50;62.00
76940;BME280;65885;55.848;35.916;2023-03-01T05:53:14;98767.22;;;-4.51;62.05
76940;BME280;65885;55.848;35.916;2023-03-01T05:55:42;98763.00;;;-4.44;62.78
76940;BME280;65885;55.848;35.916;2023-03-01T05:58:12;98769.88;;;-4.34;62.74
76940;BME280;65885;55.848;35.916;2023-03-01T06:00:44;98768.28;;;-4.23;62.03
76940;BME280;65885;55.848;35.916;2023-03-01T06:03:14;98769.16;;;-4.15;62.32
76940;BME280;65885;55.848;35.916;2023-03-01T06:05:43;98769.25;;;-4.00;62.68
76940;BME280;65885;55.848;35.916;2023-03-01T06:08:11;98768.44;;;-3.86;62.28
76940;BME280;65885;55.848;35.916;2023-03-01T06:10:39;98775.34;;;-3.72;62.44
76940;BME280;65885;55.848;35.916;2023-03-01T06:13:07;98770.28;;;-3.56;62.22
76940;BME280;65885;55.848;35.916;2023-03-01T06:15:34;98762.66;;;-3.46;61.90
76940;BME280;65885;55.848;35.916;2023-03-01T06:18:02;98765.25;;;-3.38;61.93
76940;BME280;65885;55.848;35.916;2023-03-01T06:20:30;98778.91;;;-3.33;61.75
76940;BME280;65885;55.848;35.916;2023-03-01T06:22:59;98784.91;;;-3.32;61.67
76940;BME280;65885;55.848;35.916;2023-03-01T06:25:28;98788.34;;;-3.30;61.99
76940;BME280;65885;55.848;35.916;2023-03-01T06:27:55;98782.38;;;-3.28;62.02
76940;BME280;65885;55.848;35.916;2023-03-01T06:30:25;98784.94;;;-3.23;62.27
76940;BME280;65885;55.848;35.916;2023-03-01T06:32:53;98789.25;;;-3.15;62.18
76940;BME280;65885;55.848;35.916;2023-03-01T06:35:27;98781.56;;;-3.05;62.25
76940;BME280;65885;55.848;35.916;2023-03-01T06:37:59;98794.41;;;-2.98;62.24
76940;BME280;65885;55.848;35.916;2023-03-01T06:40:26;98796.13;;;-2.91;62.10
76940;BME280;65885;55.848;35.916;2023-03-01T06:42:54;98797.84;;;-2.74;62.63
76940;BME280;65885;55.848;35.916;2023-03-01T06:45:22;98797.03;;;-2.63;62.66
76940;BME280;65885;55.848;35.916;2023-03-01T06:47:50;98809.00;;;-2.51;62.43
76940;BME280;65885;55.848;35.916;2023-03-01T06:50:18;98803.00;;;-2.35;62.36
76940;BME280;65885;55.848;35.916;2023-03-01T06:52:46;98809.00;;;-2.14;62.08
76940;BME280;65885;55.848;35.916;2023-03-01T06:55:15;98810.66;;;-1.90;61.99
76940;BME280;65885;55.848;35.916;2023-03-01T06:57:42;98807.19;;;-1.63;62.07
76940;BME280;65885;55.848;35.916;2023-03-01T07:00:11;98821.63;;;-1.30;61.93
76940;BME280;65885;55.848;35.916;2023-03-01T07:02:39;98815.50;;;-1.06;61.47
76940;BME280;65885;55.848;35.916;2023-03-01T07:05:06;98809.38;;;-0.82;61.10
76940;BME280;65885;55.848;35.916;2023-03-01T07:07:34;98823.81;;;-0.60;61.23
76940;BME280;65885;55.848;35.916;2023-03-01T07:10:01;98826.25;;;-0.42;60.41
76940;BME280;65885;55.848;35.916;2023-03-01T07:12:31;98818.47;;;-0.34;59.82
76940;BME280;65885;55.848;35.916;2023-03-01T07:14:59;98823.56;;;-0.26;59.45
76940;BME280;65885;55.848;35.916;2023-03-01T07:17:27;98829.47;;;-0.15;59.58
76940;BME280;65885;55.848;35.916;2023-03-01T07:19:54;98837.16;;;-0.06;59.16
76940;BME280;65885;55.848;35.916;2023-03-01T07:22:21;98823.31;;;-0.01;58.46
76940;BME280;65885;55.848;35.916;2023-03-01T07:24:49;98823.28;;;0.06;58.76
76940;BME280;65885;55.848;35.916;2023-03-01T07:27:17;98826.66;;;0.11;58.61
76940;BME280;65885;55.848;35.916;2023-03-01T07:29:46;98831.78;;;0.15;58.13
76940;BME280;65885;55.848;35.916;2023-03-01T07:32:13;98836.88;;;0.20;58.00
76940;BME280;65885;55.848;35.916;2023-03-01T07:34:41;98844.56;;;0.26;57.70
76940;BME280;65885;55.848;35.916;2023-03-01T07:37:09;98838.47;;;0.33;57.50
76940;BME280;65885;55.848;35.916;2023-03-01T07:39:37;98839.28;;;0.37;57.17
76940;BME280;65885;55.848;35.916;2023-03-01T07:42:04;98846.97;;;0.43;56.91
76940;BME280;65885;55.848;35.916;2023-03-01T07:44:32;98846.91;;;0.49;56.84
76940;BME280;65885;55.848;35.916;2023-03-01T07:47:03;98844.28;;;0.55;56.28
76940;BME280;65885;55.848;35.916;2023-03-01T07:49:30;98833.94;;;0.57;56.50
76940;BME280;65885;55.848;35.916;2023-03-01T07:51:57;98840.88;;;0.50;56.20
76940;BME280;65885;55.848;35.916;2023-03-01T07:54:25;98843.44;;;0.51;56.48
76940;BME280;65885;55.848;35.916;2023-03-01T07:56:53;98842.59;;;0.51;56.17
76940;BME280;65885;55.848;35.916;2023-03-01T07:59:21;98850.31;;;0.54;57.02
76940;BME280;65885;55.848;35.916;2023-03-01T08:01:51;98854.44;;;0.67;57.32
76940;BME280;65885;55.848;35.916;2023-03-01T08:04:19;98862.88;;;0.81;56.30
76940;BME280;65885;55.848;35.916;2023-03-01T08:06:47;98855.84;;;0.94;55.60
76940;BME280;65885;55.848;35.916;2023-03-01T08:09:14;98860.94;;;1.00;54.55
76940;BME280;65885;55.848;35.916;2023-03-01T08:11:42;98870.25;;;1.12;54.83
76940;BME280;65885;55.848;35.916;2023-03-01T08:14:09;98869.28;;;1.22;53.86
76940;BME280;65885;55.848;35.916;2023-03-01T08:16:37;98876.09;;;1.25;54.03
76940;BME280;65885;55.848;35.916;2023-03-01T08:19:05;98872.63;;;1.27;53.81
76940;BME280;65885;55.848;35.916;2023-03-01T08:21:34;98866.66;;;1.24;54.08
76940;BME280;65885;55.848;35.916;2023-03-01T08:24:03;98877.91;;;1.21;54.17
76940;BME280;65885;55.848;35.916;2023-03-01T08:26:31;98868.41;;;1.22;54.82
76940;BME280;65885;55.848;35.916;2023-03-01T08:29:00;98875.34;;;1.17;53.74
76940;BME280;65885;55.848;35.916;2023-03-01T08:31:31;98879.69;;;1.13;54.31
76940;BME280;65885;55.848;35.916;2023-03-01T08:34:02;98889.16;;;1.13;54.51
76940;BME280;65885;55.848;35.916;2023-03-01T08:36:34;98886.50;;;1.20;55.46
76940;BME280;65885;55.848;35.916;2023-03-01T08:39:03;98887.31;;;1.24;54.60
76940;BME280;65885;55.848;35.916;2023-03-01T08:41:30;98886.31;;;1.34;54.70
76940;BME280;65885;55.848;35.916;2023-03-01T08:43:58;98896.47;;;1.48;55.52
76940;BME280;65885;55.848;35.916;2023-03-01T08:46:26;98903.22;;;1.56;54.01
76940;BME280;65885;55.848;35.916;2023-03-01T08:48:54;98901.25;;;1.74;54.75
76940;BME280;65885;55.848;35.916;2023-03-01T08:51:22;98907.03;;;1.91;54.95
76940;BME280;65885;55.848;35.916;2023-03-01T08:53:52;98912.06;;;2.00;54.21
76940;BME280;65885;55.848;35.916;2023-03-01T08:56:20;98903.38;;;2.06;53.29
76940;BME280;65885;55.848;35.916;2023-03-01T08:58:48;98901.66;;;2.05;53.07
76940;BME280;65885;55.848;35.916;2023-03-01T09:01:17;98911.00;;;2.13;54.08
76940;BME280;65885;55.848;35.916;2023-03-01T09:03:45;98905.47;;;2.35;53.83
76940;BME280;65885;55.848;35.916;2023-03-01T09:06:13;98907.53;;;2.65;54.26
76940;BME280;65885;55.848;35.916;2023-03-01T09:08:43;98907.53;;;3.09;56.00
76940;BME280;65885;55.848;35.916;2023-03-01T09:11:14;98899.97;;;3.40;53.89
76940;BME280;65885;55.848;35.916;2023-03-01T09:13:42;98896.91;;;3.61;52.52
76940;BME280;65885;55.848;35.916;2023-03-01T09:16:11;98907.78;;;3.78;52.64
76940;BME280;65885;55.848;35.916;2023-03-01T09:18:39;98907.06;;;4.09;53.48
76940;BME280;65885;55.848;35.916;2023-03-01T09:21:08;98891.50;;;4.43;53.87
76940;BME280;65885;55.848;35.916;2023-03-01T09:23:37;98896.94;;;4.66;50.79
76940;BME280;65885;55.848;35.916;2023-03-01T09:26:05;98909.25;;;4.92;50.06
76940;BME280;65885;55.848;35.916;2023-03-01T09:28:35;98902.13;;;5.28;51.83
76940;BME280;65885;55.848;35.916;2023-03-01T09:31:03;98904.00;;;5.54;50.30
76940;BME280;65885;55.848;35.916;2023-03-01T09:33:32;98905.22;;;5.71;50.57
76940;BME280;65885;55.848;35.916;2023-03-01T09:36:01;98901.44;;;5.81;48.31
76940;BME280;65885;55.848;35.916;2023-03-01T09:38:30;98914.25;;;5.87;48.33
76940;BME280;65885;55.848;35.916;2023-03-01T09:40:58;98902.84;;;5.93;48.47
76940;BME280;65885;55.848;35.916;2023-03-01T09:43:30;98899.50;;;6.16;49.20
76940;BME280;65885;55.848;35.916;2023-03-01T09:46:05;98897.59;;;6.47;48.88
76940;BME280;65885;55.848;35.916;2023-03-01T09:48:38;98895.63;;;6.79;47.49
76940;BME280;65885;55.848;35.916;2023-03-01T09:51:14;98901.09;;;7.21;48.10
76940;BME280;65885;55.848;35.916;2023-03-01T09:53:44;98892.63;;;7.38;45.01
76940;BME280;65885;55.848;35.916;2023-03-01T09:56:17;98896.28;;;7.56;46.61
76940;BME280;65885;55.848;35.916;2023-03-01T09:58:51;98890.31;;;7.75;47.51
76940;BME280;65885;55.848;35.916;2023-03-01T10:01:32;98895.59;;;7.74;44.91
76940;BME280;65885;55.848;35.916;2023-03-01T10:04:26;98897.59;;;7.67;44.82
76940;BME280;65885;55.848;35.916;2023-03-01T10:07:05;98898.88;;;7.34;45.08
76940;BME280;65885;55.848;35.916;2023-03-01T10:09:36;98902.59;;;7.03;45.27
76940;BME280;65885;55.848;35.916;2023-03-01T10:12:09;98892.66;;;6.64;43.77
76940;BME280;65885;55.848;35.916;2023-03-01T10:14:41;98908.84;;;6.23;44.72
76940;BME280;65885;55.848;35.916;2023-03-01T10:17:23;98905.66;;;5.85;44.66
76940;BME280;65885;55.848;35.916;2023-03-01T10:19:55;98900.78;;;5.46;45.06
76940;BME280;65885;55.848;35.916;2023-03-01T10:22:28;98907.06;;;5.08;44.93
76940;BME280;65885;55.848;35.916;2023-03-01T10:24:59;98890.56;;;4.78;47.12
76940;BME280;65885;55.848;35.916;2023-03-01T10:27:35;98891.88;;;4.62;46.96
76940;BME280;65885;55.848;35.916;2023-03-01T10:30:13;98897.44;;;4.48;47.65
76940;BME280;65885;55.848;35.916;2023-03-01T10:32:47;98878.66;;;4.37;48.51
76940;BME280;65885;55.848;35.916;2023-03-01T10:35:19;98891.13;;;4.23;48.09
76940;BME280;65885;55.848;35.916;2023-03-01T10:37:57;98894.06;;;4.10;49.44
76940;BME280;65885;55.848;35.916;2023-03-01T10:40:25;98888.06;;;4.08;51.32
76940;BME280;65885;55.848;35.916;2023-03-01T10:42:52;98900.84;;;4.16;51.17
76940;BME280;65885;55.848;35.916;2023-03-01T10:45:40;98912.41;;;4.38;51.73
76940;BME280;65885;55.848;35.916;2023-03-01T10:48:14;98905.69;;;4.64;52.20
76940;BME280;65885;55.848;35.916;2023-03-01T10:50:43;98901.19;;;4.70;50.43
76940;BME280;65885;55.848;35.916;2023-03-01T10:53:22;98915.78;;;4.74;50.58
76940;BME280;65885;55.848;35.916;2023-03-01T10:56:03;98924.94;;;4.55;48.14
76940;BME280;65885;55.848;35.916;2023-03-01T10:58:33;98926.94;;;4.44;48.98
76940;BME280;65885;55.848;35.916;2023-03-01T11:01:02;98922.78;;;4.38;49.30
76940;BME280;65885;55.848;35.916;2023-03-01T11:03:32;98923.63;;;4.39;50.11
76940;BME280;65885;55.848;35.916;2023-03-01T11:06:04;98914.81;;;4.46;50.47
76940;BME280;65885;55.848;35.916;2023-03-01T11:08:35;98913.63;;;4.58;50.08
76940;BME280;65885;55.848;35.916;2023-03-01T11:11:32;98914.16;;;4.70;50.52
76940;BME280;65885;55.848;35.916;2023-03-01T11:14:03;98913.59;;;4.92;52.07
76940;BME280;65885;55.848;35.916;2023-03-01T11:16:34;98925.94;;;5.15;51.71
76940;BME280;65885;55.848;35.916;2023-03-01T11:19:20;98923.88;;;5.26;50.80
76940;BME280;65885;55.848;35.916;2023-03-01T11:21:56;98925.75;;;5.21;48.41
76940;BME280;65885;55.848;35.916;2023-03-01T11:24:31;98921.94;;;5.03;50.61
76940;BME280;65885;55.848;35.916;2023-03-01T11:27:04;98929.53;;;4.78;50.13
76940;BME280;65885;55.848;35.916;2023-03-01T11:29:38;98937.28;;;4.47;49.88
76940;BME280;65885;55.848;35.916;2023-03-01T11:32:09;98935.28;;;4.21;50.02
76940;BME280;65885;55.848;35.916;2023-03-01T11:34:43;98935.16;;;3.90;50.10
76940;BME280;65885;55.848;35.916;2023-03-01T11:37:22;98935.69;;;3.67;51.37
76940;BME280;65885;55.848;35.916;2023-03-01T11:39:58;98940.50;;;3.44;51.14
76940;BME280;65885;55.848;35.916;2023-03-01T11:42:40;98931.38;;;3.26;51.57
76940;BME280;65885;55.848;35.916;2023-03-01T11:45:12;98939.53;;;3.06;51.65
76940;BME280;65885;55.848;35.916;2023-03-01T11:48:02;98933.72;;;2.93;52.60
76940;BME280;65885;55.848;35.916;2023-03-01T11:50:40;98941.72;;;2.83;52.31
76940;BME280;65885;55.848;35.916;2023-03-01T11:53:22;98942.75;;;2.74;53.31
76940;BME280;65885;55.848;35.916;2023-03-01T11:56:05;98937.50;;;2.77;54.22
76940;BME280;65885;55.848;35.916;2023-03-01T11:58:58;98935.78;;;2.76;53.48
76940;BME280;65885;55.848;35.916;2023-03-01T12:01:45;98940.03;;;2.78;54.51
76940;BME280;65885;55.848;35.916;2023-03-01T12:07:18;98932.91;;;2.91;54.05
76940;BME280;65885;55.848;35.916;2023-03-01T12:10:13;98934.66;;;2.91;53.57
76940;BME280;65885;55.848;35.916;2023-03-01T12:13:13;98932.28;;;2.78;52.15
76940;BME280;65885;55.848;35.916;2023-03-01T12:19:06;98931.03;;;2.53;53.96
76940;BME280;65885;55.848;35.916;2023-03-01T12:21:45;98924.25;;;2.46;54.55
76940;BME280;65885;55.848;35.916;2023-03-01T12:24:32;98920.13;;;2.36;53.94
76940;BME280;65885;55.848;35.916;2023-03-01T12:27:23;98918.53;;;2.26;54.71
76940;BME280;65885;55.848;35.916;2023-03-01T12:30:04;98930.72;;;2.20;55.43
76940;BME280;65885;55.848;35.916;2023-03-01T12:32:42;98925.56;;;2.17;55.78
76940;BME280;65885;55.848;35.916;2023-03-01T12:35:37;98917.00;;;2.15;55.74
76940;BME280;65885;55.848;35.916;2023-03-01T12:38:29;98912.72;;;2.13;55.61
76940;BME280;65885;55.848;35.916;2023-03-01T12:44:09;98914.28;;;2.23;57.00
76940;BME280;65885;55.848;35.916;2023-03-01T12:46:49;98912.34;;;2.34;56.67
76940;BME280;65885;55.848;35.916;2023-03-01T12:49:23;98909.66;;;2.42;56.78
76940;BME280;65885;55.848;35.916;2023-03-01T12:51:57;98912.06;;;2.53;56.33
76940;BME280;65885;55.848;35.916;2023-03-01T12:54:28;98909.47;;;2.53;55.58
76940;BME280;65885;55.848;35.916;2023-03-01T12:57:02;98913.84;;;2.47;56.66
76940;BME280;65885;55.848;35.916;2023-03-01T12:59:39;98920.09;;;2.37;56.93
76940;BME280;65885;55.848;35.916;2023-03-01T13:02:15;98917.75;;;2.22;56.45
76940;BME280;65885;55.848;35.916;2023-03-01T13:04:58;98913.69;;;2.07;56.71
76940;BME280;65885;55.848;35.916;2023-03-01T13:07:35;98916.50;;;1.92;57.14
76940;BME280;65885;55.848;35.916;2023-03-01T13:10:17;98911.56;;;1.77;57.54
76940;BME280;65885;55.848;35.916;2023-03-01T13:13:01;98917.78;;;1.63;58.31
76940;BME280;65885;55.848;35.916;2023-03-01T13:15:33;98911.03;;;1.53;57.80
76940;BME280;65885;55.848;35.916;2023-03-01T13:18:04;98908.59;;;1.44;57.05
76940;BME280;65885;55.848;35.916;2023-03-01T13:20:34;98904.25;;;1.43;58.17
76940;BME280;65885;55.848;35.916;2023-03-01T13:23:23;98903.38;;;1.46;57.26
76940;BME280;65885;55.848;35.916;2023-03-01T13:26:12;98899.06;;;1.46;57.84
76940;BME280;65885;55.848;35.916;2023-03-01T13:29:02;98901.59;;;1.49;58.11